Terminal Aerodrome Forecast
Issued by NWS

Home | Current Version | Previous Version | Text Only | Print | Product List | Glossary On
Versions: 1 2 3 4 5 6 7 8 9 10 11 12 13 14 15 16
000
FTUS45 KTFX 301100
TAFGTF
TAF
KGTF 301133Z 3012/0112 22011KT P6SM VCSH SCT030 BKN060
     FM301400 23015KT P6SM SCT050 BKN100
     FM302000 26018G26KT P6SM SCT080 BKN120
     FM010200 30008KT P6SM BKN100
     FM010600 27011KT P6SM SCT080 BKN120 PROB30 0107/0111 5SM -SHRA
      BKN060=

USA.gov is the U.S. government's official web portal to all federal, state and local government web resources and services.